Página principal
METAR-TAF:

METAR-TAF

Aeroportos :

Terceira, Açores, Portugal

Base Aérea das Lajes

latitude: 38-46N, longitude: 027-06W, altura: 52 m

Observação actual do tempo

O boletim foi feito há 1 hora e 1 minutos, às 19:00 UTC
Temperatura 18°C
Humidade 88%
Pressão 1032 hPa
Visibilidade 10 km ou mais
Poucas nuvensa uma altura de 1600 ft
Nuvens fragmentadasa uma altura de 2500 ft

METAR: LPLA 121900Z /////KT 9999 FEW016 BKN025 18/16 Q1032

Hora: 19:01 (20:01 UTC)

Previsão

O boletim foi feito há 2 horas e 59 minutos, às 17:02 UTC
Previsão válida de 12 às 18 UTC a 13 às 18 UTC
Vento 5 kt com direcção variável
Visibilidade 10 km ou mais
Poucas nuvensa uma altura de 1400 ft
Nuvens fragmentadasa uma altura de 3000 ft

TAF: LPLA 121702Z 1218/1318 VRB05KT 9999 FEW014 BKN030

Observações e previsões do tempo de mais de 4000 aeroportos (mensagens METAR e TAF).

As estações disponíveis são os pontos amarelos e vermelhos sobre o mapa.

Mova o rato sobre o mapa para ver o nome da estação.

Depois clique no ponto para visualizar as observações e previsões meteorológicas.

Para alterar o mapa : clique nos botões verdes com uma cruz preta para aumentar o zoom; no botão verde com uma pitada de zoom; ou nas setas verdes para mapas adjacentes.


METAR-TAF: